Time;durP1;ratioP1;P1;durP2;ratioP2;P2;SDS_P1;SDS_P2;PMS_P1;PMS_P2;Temp;Humidity;BMP_temperature;BMP_pressure;BME280_temperature;BME280_humidity;BME280_pressure;Samples;Min_cycle;Max_cycle;Signal;HPM_P1;HPM_P2
2021/11/13 00:00:14;;;;;;;54.20;21.73;;;;;;;0.64;100.00;100768.53;5080666;28;20629;-81
2021/11/13 00:02:44;;;;;;;50.67;21.40;;;;;;;0.64;100.00;100769.41;5078865;28;20214;-81
2021/11/13 00:05:11;;;;;;;49.93;20.10;;;;;;;0.64;100.00;100760.84;5079901;28;20205;-81
2021/11/13 00:07:37;;;;;;;48.33;20.97;;;;;;;0.64;100.00;100756.56;5084195;28;20201;-81
2021/11/13 00:10:08;;;;;;;51.83;20.90;;;;;;;0.65;100.00;100748.03;5080119;28;20216;-81
2021/11/13 00:12:34;;;;;;;54.87;23.00;;;;;;;0.66;100.00;100754.03;5085139;28;20234;-81
2021/11/13 00:15:02;;;;;;;52.33;21.10;;;;;;;0.63;100.00;100748.84;5081127;28;20206;-81
2021/11/13 00:17:28;;;;;;;46.20;21.10;;;;;;;0.62;100.00;100748.00;5084677;28;20229;-81
2021/11/13 00:19:54;;;;;;;50.33;20.50;;;;;;;0.61;100.00;100741.13;5075757;28;20213;-81
2021/11/13 00:22:21;;;;;;;46.13;20.00;;;;;;;0.60;100.00;100739.41;5083250;28;20222;-81
2021/11/13 00:24:48;;;;;;;50.80;20.47;;;;;;;0.60;100.00;100741.09;5080188;28;20198;-81
2021/11/13 00:27:16;;;;;;;49.80;20.67;;;;;;;0.52;100.00;100734.13;5084317;28;20272;-81
2021/11/13 00:29:42;;;;;;;53.90;20.37;;;;;;;0.47;100.00;100725.50;5079229;28;20597;-81
2021/11/13 00:32:09;;;;;;;44.53;19.47;;;;;;;0.41;100.00;100733.09;5084482;28;20230;-81
2021/11/13 00:34:36;;;;;;;45.27;20.87;;;;;;;0.36;100.00;100729.59;5077036;28;20691;-81
2021/11/13 00:37:02;;;;;;;52.47;20.40;;;;;;;0.34;100.00;100731.28;5083285;28;20200;-81
2021/11/13 00:39:29;;;;;;;42.40;18.80;;;;;;;0.28;100.00;100732.03;5081816;28;20206;-80
2021/11/13 00:41:55;;;;;;;52.40;21.27;;;;;;;0.25;100.00;100731.97;5082459;28;20231;-81
2021/11/13 00:44:23;;;;;;;46.70;19.80;;;;;;;0.25;100.00;100726.00;5081892;28;20207;-81
2021/11/13 00:46:50;;;;;;;47.40;19.17;;;;;;;0.23;100.00;100731.09;5084043;28;20216;-81
2021/11/13 00:49:17;;;;;;;49.90;21.40;;;;;;;0.16;100.00;100727.53;5080664;28;20294;-81
2021/11/13 00:51:45;;;;;;;43.60;19.33;;;;;;;0.19;100.00;100729.28;5079872;28;20248;-81
2021/11/13 00:54:12;;;;;;;40.03;18.23;;;;;;;0.17;100.00;100729.25;5081322;28;20201;-81
2021/11/13 00:56:38;;;;;;;51.73;20.50;;;;;;;0.18;100.00;100728.44;5081847;28;20219;-81
2021/11/13 00:59:05;;;;;;;43.70;18.90;;;;;;;0.19;100.00;100724.16;5080483;28;20204;-81
2021/11/13 01:01:32;;;;;;;42.57;20.10;;;;;;;0.22;100.00;100728.50;5079068;28;20425;-81
2021/11/13 01:03:59;;;;;;;45.47;19.50;;;;;;;0.09;100.00;100729.94;5082127;28;20198;-81
2021/11/13 01:06:25;;;;;;;46.83;19.07;;;;;;;0.09;100.00;100728.28;5081059;28;20301;-81
2021/11/13 01:08:51;;;;;;;43.93;17.20;;;;;;;0.09;100.00;100728.28;5082884;28;20899;-81
2021/11/13 01:11:18;;;;;;;47.00;19.83;;;;;;;0.08;100.00;100728.25;5077570;28;20237;-81
2021/11/13 01:13:46;;;;;;;42.63;17.57;;;;;;;0.06;100.00;100737.59;5083602;28;20217;-81
2021/11/13 01:16:13;;;;;;;46.03;18.57;;;;;;;-0.01;100.00;100740.03;5078425;28;20285;-81
2021/11/13 01:18:41;;;;;;;42.13;18.27;;;;;;;0.03;100.00;100730.69;5084143;28;20208;-81
2021/11/13 01:21:08;;;;;;;42.47;17.90;;;;;;;-0.02;100.00;100737.44;5080495;28;20227;-81
2021/11/13 01:23:34;;;;;;;38.03;17.40;;;;;;;-0.01;100.00;100737.47;5084981;28;20198;-81
2021/11/13 01:26:02;;;;;;;47.03;18.33;;;;;;;-0.11;100.00;100734.72;5079001;28;20212;-81
2021/11/13 01:28:28;;;;;;;42.00;18.37;;;;;;;-0.15;100.00;100736.34;5081769;28;20572;-81
2021/11/13 01:30:55;;;;;;;38.03;16.73;;;;;;;-0.08;100.00;100734.78;5079067;28;20202;-81
2021/11/13 01:33:22;;;;;;;41.67;19.23;;;;;;;-0.07;100.00;100728.78;5085498;28;20236;-80
2021/11/13 01:35:51;;;;;;;48.73;19.40;;;;;;;-0.06;100.00;100728.81;5081396;28;20199;-80
2021/11/13 01:38:18;;;;;;;42.60;18.80;;;;;;;-0.09;100.00;100720.22;5080718;28;20572;-80
2021/11/13 01:40:46;;;;;;;48.93;18.93;;;;;;;-0.06;100.00;100720.28;5079517;28;20220;-80
2021/11/13 01:43:12;;;;;;;42.13;19.00;;;;;;;0.02;100.00;100712.72;5080814;28;20207;-80
2021/11/13 01:45:39;;;;;;;45.60;18.50;;;;;;;0.01;100.00;100709.31;5081775;28;20194;-80
2021/11/13 01:48:05;;;;;;;41.73;19.57;;;;;;;0.04;100.00;100708.50;5079447;28;20204;-81
2021/11/13 01:50:35;;;;;;;39.50;18.00;;;;;;;0.03;100.00;100712.75;5085929;28;20202;-81
2021/11/13 01:53:04;;;;;;;45.63;18.10;;;;;;;-0.02;100.00;100714.38;5085615;28;20208;-81
2021/11/13 01:55:35;;;;;;;38.97;18.13;;;;;;;-0.02;100.00;100715.25;5085160;28;20282;-81
2021/11/13 01:58:02;;;;;;;46.83;18.10;;;;;;;-0.04;100.00;100716.91;5080206;28;20204;-81
2021/11/13 02:00:32;;;;;;;48.63;19.20;;;;;;;0.06;100.00;100719.66;5082706;28;20208;-81
2021/11/13 02:02:59;;;;;;;43.50;18.97;;;;;;;0.04;100.00;100713.66;5081855;28;20218;-81
2021/11/13 02:05:26;;;;;;;49.93;18.70;;;;;;;0.05;100.00;100715.34;5088896;28;20211;-81
2021/11/13 02:07:52;;;;;;;48.97;20.17;;;;;;;0.10;100.00;100714.59;5080719;28;20206;-81
2021/11/13 02:10:22;;;;;;;44.07;19.23;;;;;;;0.08;100.00;100716.28;5087001;28;20210;-81
2021/11/13 02:12:49;;;;;;;44.77;19.13;;;;;;;0.03;100.00;100711.91;5084250;28;20230;-81
2021/11/13 02:15:16;;;;;;;45.43;19.83;;;;;;;0.04;100.00;100713.66;5085930;28;20766;-80
2021/11/13 02:17:44;;;;;;;46.13;19.97;;;;;;;0.06;100.00;100699.16;5083468;28;20228;-81
2021/11/13 02:20:20;;;;;;;44.10;19.13;;;;;;;-0.09;100.00;100705.72;5086530;28;20217;-81
2021/11/13 02:22:47;;;;;;;37.83;17.27;;;;;;;0.02;100.00;100715.28;5082308;28;20225;-81
2021/11/13 02:25:16;;;;;;;40.23;17.27;;;;;;;0.00;100.00;100705.03;5087132;28;20746;-81
2021/11/13 02:27:43;;;;;;;37.10;18.03;;;;;;;-0.05;100.00;100702.38;5083923;28;20210;-81
2021/11/13 02:30:10;;;;;;;42.53;18.17;;;;;;;0.01;100.00;100703.31;5087910;28;20206;-81
2021/11/13 02:32:36;;;;;;;40.40;17.60;;;;;;;0.02;100.00;100703.34;5083744;28;20228;-81
2021/11/13 02:35:03;;;;;;;43.60;18.90;;;;;;;-0.01;100.00;100701.59;5082106;28;20207;-81
2021/11/13 02:37:32;;;;;;;45.10;20.23;;;;;;;-0.05;100.00;100698.97;5083565;28;20205;-81
2021/11/13 02:39:58;;;;;;;47.40;18.77;;;;;;;0.08;100.00;100700.88;5080139;28;20794;-81
2021/11/13 02:42:25;;;;;;;47.13;19.40;;;;;;;0.04;100.00;100696.56;5085657;28;20270;-81
2021/11/13 02:44:52;;;;;;;44.93;20.03;;;;;;;0.04;100.00;100708.50;5081614;28;20211;-80
2021/11/13 02:47:20;;;;;;;45.63;20.60;;;;;;;0.12;100.00;100715.50;5085537;28;20202;-81
2021/11/13 02:49:47;;;;;;;50.87;21.13;;;;;;;0.17;100.00;100702.75;5083199;28;20208;-81
2021/11/13 02:52:14;;;;;;;50.00;20.63;;;;;;;0.17;100.00;100702.75;5085770;28;20222;-81
2021/11/13 02:54:44;;;;;;;49.23;21.13;;;;;;;0.22;100.00;100707.97;5082093;28;20199;-81
2021/11/13 02:57:10;;;;;;;49.87;21.10;;;;;;;0.21;100.00;100716.50;5086339;28;20709;-80
2021/11/13 02:59:42;;;;;;;45.87;20.00;;;;;;;0.21;100.00;100726.75;5090901;28;20297;-81
2021/11/13 03:02:08;;;;;;;53.43;21.10;;;;;;;0.24;100.00;100725.09;5087941;28;20738;-81
2021/11/13 03:04:35;;;;;;;47.10;19.87;;;;;;;0.27;100.00;100717.47;5079237;28;20215;-81
2021/11/13 03:07:01;;;;;;;49.17;20.73;;;;;;;0.32;100.00;100709.88;5085040;28;20208;-81
2021/11/13 03:09:28;;;;;;;48.43;19.27;;;;;;;0.27;100.00;100714.91;5080763;28;20200;-81
2021/11/13 03:11:56;;;;;;;49.47;20.40;;;;;;;0.30;100.00;100722.66;5084428;28;20233;-81
2021/11/13 03:14:24;;;;;;;44.10;18.83;;;;;;;0.31;100.00;100718.38;5077793;28;20259;-81
2021/11/13 03:16:51;;;;;;;46.20;19.67;;;;;;;0.34;100.00;100711.59;5084524;28;20604;-81
2021/11/13 03:19:17;;;;;;;49.10;19.73;;;;;;;0.33;100.00;100717.56;5082522;28;20209;-81
2021/11/13 03:21:44;;;;;;;40.03;18.80;;;;;;;0.32;100.00;100710.72;5084933;28;20272;-81
2021/11/13 03:24:11;;;;;;;45.77;19.10;;;;;;;0.29;100.00;100710.66;5081336;28;20202;-81
2021/11/13 03:26:39;;;;;;;49.27;19.63;;;;;;;0.32;100.00;100709.88;5081542;28;20228;-81
2021/11/13 03:29:14;;;;;;;44.83;20.03;;;;;;;0.28;100.00;100695.25;5083806;28;20209;-81
2021/11/13 03:31:42;;;;;;;41.67;18.40;;;;;;;0.24;100.00;100694.31;5081773;28;20222;-81
2021/11/13 03:34:08;;;;;;;41.93;18.67;;;;;;;0.31;100.00;100703.00;5083721;28;20232;-81
2021/11/13 03:36:35;;;;;;;46.47;19.07;;;;;;;0.34;100.00;100697.94;5082254;28;20233;-81
2021/11/13 03:39:02;;;;;;;47.60;19.27;;;;;;;0.31;100.00;100697.88;5084570;28;20202;-81
2021/11/13 03:41:30;;;;;;;51.33;20.00;;;;;;;0.31;100.00;100697.88;5083579;28;20958;-81
2021/11/13 03:43:56;;;;;;;46.40;19.10;;;;;;;0.31;100.00;100703.00;5084133;28;20287;-81
2021/11/13 03:46:24;;;;;;;49.07;20.67;;;;;;;0.30;100.00;100706.38;5079039;28;20913;-81
2021/11/13 03:48:52;;;;;;;47.43;19.67;;;;;;;0.28;100.00;100706.38;5086971;28;20210;-81
2021/11/13 03:51:19;;;;;;;47.17;19.83;;;;;;;0.27;100.00;100702.09;5080496;28;20229;-81
2021/11/13 03:53:46;;;;;;;49.17;19.97;;;;;;;0.30;100.00;100698.69;5084956;28;20223;-81
2021/11/13 03:56:12;;;;;;;45.10;18.67;;;;;;;0.31;100.00;100700.44;5077907;28;20215;-81
2021/11/13 03:58:39;;;;;;;43.73;19.30;;;;;;;0.29;100.00;100697.84;5083875;28;20205;-81
2021/11/13 04:01:05;;;;;;;45.20;18.90;;;;;;;0.28;100.00;100690.09;5078286;28;20895;-80
2021/11/13 04:03:33;;;;;;;43.40;19.07;;;;;;;0.29;100.00;100694.41;5082277;28;20214;-80
2021/11/13 04:05:59;;;;;;;47.70;19.07;;;;;;;0.34;100.00;100692.78;5077516;28;20215;-80
2021/11/13 04:08:26;;;;;;;50.23;20.30;;;;;;;0.40;100.00;100681.75;5081361;28;20215;-80
2021/11/13 04:10:52;;;;;;;41.40;18.20;;;;;;;0.41;100.00;100694.63;5079577;28;20213;-80
2021/11/13 04:13:19;;;;;;;44.60;18.17;;;;;;;0.34;100.00;100697.94;5080311;28;20224;-80
2021/11/13 04:15:46;;;;;;;45.13;18.03;;;;;;;0.33;100.00;100699.59;5077742;28;20583;-81
2021/11/13 04:18:12;;;;;;;40.67;16.80;;;;;;;0.34;100.00;100691.09;5086073;28;20213;-81
2021/11/13 04:20:40;;;;;;;42.60;17.60;;;;;;;0.42;100.00;100693.75;5082520;28;20201;-81
2021/11/13 04:23:06;;;;;;;45.87;18.37;;;;;;;0.35;100.00;100697.94;5085027;28;20683;-81
2021/11/13 04:25:33;;;;;;;39.90;19.23;;;;;;;0.33;100.00;100694.47;5084403;28;20678;-81
2021/11/13 04:28:00;;;;;;;44.00;18.90;;;;;;;0.34;100.00;100692.78;5085101;28;20206;-81
2021/11/13 04:30:26;;;;;;;51.47;19.63;;;;;;;0.36;100.00;100696.25;5083080;28;20294;-81
2021/11/13 04:32:53;;;;;;;40.97;18.17;;;;;;;0.35;100.00;100697.94;5083440;28;20462;-81
2021/11/13 04:35:23;;;;;;;50.20;18.93;;;;;;;0.31;100.00;100688.47;5081503;28;20205;-81
2021/11/13 04:37:53;;;;;;;38.70;17.40;;;;;;;0.35;100.00;100689.38;5078753;28;20203;-80
2021/11/13 04:40:23;;;;;;;48.33;19.90;;;;;;;0.32;100.00;100687.63;5081590;28;20621;-81
2021/11/13 04:42:50;;;;;;;44.43;17.80;;;;;;;0.33;100.00;100680.78;5080382;28;20227;-81
2021/11/13 04:45:16;;;;;;;50.20;20.37;;;;;;;0.34;100.00;100680.81;5084862;28;20204;-82
2021/11/13 04:47:43;;;;;;;49.10;20.37;;;;;;;0.37;100.00;100674.91;5080213;28;20213;-81
2021/11/13 04:50:13;;;;;;;46.67;19.17;;;;;;;0.35;100.00;100677.44;5082377;28;20204;-81
2021/11/13 04:52:40;;;;;;;42.63;18.70;;;;;;;0.38;100.00;100676.59;5080902;28;21056;-81
2021/11/13 04:55:08;;;;;;;39.03;18.80;;;;;;;0.41;100.00;100674.09;5084573;28;20208;-81
2021/11/13 04:57:35;;;;;;;37.97;17.70;;;;;;;0.41;100.00;100670.69;5078822;28;20707;-81
2021/11/13 05:00:09;;;;;;;39.87;17.90;;;;;;;0.37;100.00;100675.75;5083459;28;20284;-81
2021/11/13 05:02:35;;;;;;;35.67;17.60;;;;;;;0.42;100.00;100670.69;5079948;28;20233;-81
2021/11/13 05:05:01;;;;;;;41.43;18.03;;;;;;;0.43;100.00;100676.69;5084520;28;20206;-81
2021/11/13 05:07:28;;;;;;;43.63;18.90;;;;;;;0.43;100.00;100676.69;5080891;28;20761;-81
2021/11/13 05:09:55;;;;;;;39.53;17.90;;;;;;;0.44;100.00;100669.03;5080070;28;20219;-81
2021/11/13 05:12:23;;;;;;;36.87;16.20;;;;;;;0.47;100.00;100675.88;5082822;28;20225;-81
2021/11/13 05:14:52;;;;;;;39.37;17.73;;;;;;;0.50;100.00;100671.66;5082901;28;20249;-81
2021/11/13 05:17:20;;;;;;;41.90;16.93;;;;;;;0.50;100.00;100673.38;5082848;28;20667;-81
2021/11/13 05:19:47;;;;;;;43.43;17.90;;;;;;;0.52;100.00;100672.56;5081464;28;20300;-81
2021/11/13 05:22:13;;;;;;;35.60;16.73;;;;;;;0.57;100.00;100665.78;5083564;28;20231;-81
2021/11/13 05:24:39;;;;;;;43.10;18.50;;;;;;;0.57;100.00;100670.06;5082034;28;20200;-81
2021/11/13 05:27:06;;;;;;;44.33;18.20;;;;;;;0.57;100.00;100665.78;5084133;28;20194;-81
2021/11/13 05:29:34;;;;;;;42.63;17.97;;;;;;;0.58;100.00;100666.66;5081573;28;20213;-81
2021/11/13 05:32:06;;;;;;;40.67;18.10;;;;;;;0.59;100.00;100655.56;5082703;28;20618;-81
2021/11/13 05:34:33;;;;;;;43.67;18.37;;;;;;;0.60;100.00;100657.28;5078752;28;20219;-80
2021/11/13 05:36:59;;;;;;;41.17;18.07;;;;;;;0.64;100.00;100656.50;5079955;28;20214;-81
2021/11/13 05:39:28;;;;;;;37.87;18.20;;;;;;;0.67;100.00;100650.53;5077217;28;20240;-81
2021/11/13 05:41:56;;;;;;;41.37;18.97;;;;;;;0.69;100.00;100656.56;5084471;28;20333;-81
2021/11/13 05:44:23;;;;;;;43.50;19.03;;;;;;;0.74;100.00;100658.34;5079094;28;20199;-81
2021/11/13 05:46:54;;;;;;;48.17;19.17;;;;;;;0.77;100.00;100652.38;5084740;28;20198;-81
2021/11/13 05:49:20;;;;;;;46.13;19.13;;;;;;;0.84;100.00;100658.47;5078449;28;20217;-81
2021/11/13 05:51:50;;;;;;;42.77;17.83;;;;;;;0.88;100.00;100655.09;5081344;28;20271;-81
2021/11/13 05:54:17;;;;;;;43.37;18.10;;;;;;;0.90;100.00;100641.47;5081643;28;20225;-81
2021/11/13 05:56:43;;;;;;;42.43;17.97;;;;;;;0.97;100.00;100641.53;5084005;28;20206;-81
2021/11/13 05:59:12;;;;;;;44.67;18.83;;;;;;;1.00;100.00;100639.00;5081163;28;20228;-81
2021/11/13 06:01:41;;;;;;;45.60;18.53;;;;;;;1.03;100.00;100633.91;5079582;28;20649;-82
2021/11/13 06:04:08;;;;;;;43.63;18.87;;;;;;;1.06;100.00;100642.53;5082132;28;20193;-81
2021/11/13 06:06:35;;;;;;;42.27;17.33;;;;;;;1.08;100.00;100639.97;5081660;28;20241;-81
2021/11/13 06:09:01;;;;;;;47.17;18.00;;;;;;;1.06;100.00;100644.25;5083715;28;20213;-81
2021/11/13 06:11:28;;;;;;;51.90;18.10;;;;;;;1.08;100.00;100648.53;5083801;28;20586;-81
2021/11/13 06:13:54;;;;;;;51.07;18.87;;;;;;;1.10;100.00;100656.28;5081947;28;20226;-81
2021/11/13 06:16:21;;;;;;;48.23;18.60;;;;;;;1.12;100.00;100658.00;5080901;28;20210;-81
2021/11/13 06:18:47;;;;;;;41.97;18.70;;;;;;;1.14;100.00;100670.88;5081642;28;20206;-82
2021/11/13 06:21:16;;;;;;;36.80;16.90;;;;;;;1.16;100.00;100681.16;5083487;28;20218;-82
2021/11/13 06:23:45;;;;;;;45.77;18.73;;;;;;;1.18;100.00;100692.31;5087688;28;20805;-81
2021/11/13 06:26:12;;;;;;;44.13;17.27;;;;;;;1.19;100.00;100694.06;5081283;28;20219;-81
2021/11/13 06:28:39;;;;;;;39.10;16.63;;;;;;;1.22;100.00;100687.25;5086380;28;20206;-81
2021/11/13 06:31:07;;;;;;;38.43;16.77;;;;;;;1.26;100.00;100691.56;5082482;28;20224;-81
2021/11/13 06:33:37;;;;;;;40.07;17.10;;;;;;;1.27;100.00;100695.88;5085875;28;20234;-81
2021/11/13 06:36:05;;;;;;;40.93;16.90;;;;;;;1.31;100.00;100697.63;5083802;28;20224;-81
2021/11/13 06:38:33;;;;;;;40.20;15.53;;;;;;;1.35;100.00;100701.09;5086693;28;20228;-81
2021/11/13 06:40:59;;;;;;;34.90;15.83;;;;;;;1.37;100.00;100703.69;5081724;28;20226;-81
2021/11/13 06:43:25;;;;;;;42.27;17.83;;;;;;;1.43;100.00;100703.78;5086894;28;20637;-81
2021/11/13 06:45:52;;;;;;;44.53;16.93;;;;;;;1.47;100.00;100708.13;5082906;28;20213;-81
2021/11/13 06:48:20;;;;;;;45.23;17.00;;;;;;;1.49;100.00;100702.13;5085097;28;20937;-81
2021/11/13 06:50:48;;;;;;;41.73;16.93;;;;;;;1.53;100.00;100710.78;5084309;28;20292;-81
2021/11/13 06:53:15;;;;;;;38.50;15.87;;;;;;;1.56;100.00;100710.78;5086075;28;20303;-81
2021/11/13 06:55:42;;;;;;;42.20;18.93;;;;;;;1.60;100.00;100714.25;5084489;28;20206;-81
2021/11/13 06:58:09;;;;;;;46.47;20.37;;;;;;;1.62;100.00;100717.69;5085169;28;20228;-81
2021/11/13 07:00:35;;;;;;;43.63;18.70;;;;;;;1.67;100.00;100718.63;5082909;28;20225;-81
2021/11/13 07:03:02;;;;;;;42.27;20.03;;;;;;;1.69;100.00;100712.66;5092065;28;20199;-81
2021/11/13 07:05:29;;;;;;;44.53;20.73;;;;;;;1.75;100.00;100713.59;5099764;28;20506;-81
2021/11/13 07:07:56;;;;;;;47.60;21.53;;;;;;;1.79;100.00;100707.63;5098757;28;20209;-81
2021/11/13 07:10:22;;;;;;;50.23;22.00;;;;;;;1.82;100.00;100705.09;5100423;28;20745;-80
2021/11/13 07:12:50;;;;;;;45.60;21.57;;;;;;;1.86;100.00;100696.56;5099384;28;20225;-80
2021/11/13 07:15:19;;;;;;;43.87;19.67;;;;;;;1.90;100.00;100703.47;5103408;28;20297;-81
2021/11/13 07:17:46;;;;;;;40.37;20.37;;;;;;;1.94;100.00;100705.22;5100340;28;20197;-80
2021/11/13 07:20:13;;;;;;;49.77;21.93;;;;;;;2.01;100.00;100712.16;5096476;28;20205;-81
2021/11/13 07:22:41;;;;;;;42.00;20.20;;;;;;;2.08;100.00;100708.78;5090377;28;20218;-81
2021/11/13 07:25:13;;;;;;;48.70;20.13;;;;;;;2.16;100.00;100714.00;5094870;28;20230;-80
2021/11/13 07:27:39;;;;;;;43.90;19.23;;;;;;;2.25;100.00;100720.94;5089067;28;20236;-81
2021/11/13 07:30:08;;;;;;;46.07;19.87;;;;;;;2.30;100.00;100719.28;5099146;28;20193;-80
2021/11/13 07:32:35;;;;;;;47.90;19.33;;;;;;;2.35;100.00;100711.63;5091518;28;20228;-80
2021/11/13 07:35:01;;;;;;;44.70;18.63;;;;;;;2.41;100.00;100712.53;5095267;28;20214;-80
2021/11/13 07:37:28;;;;;;;44.60;19.50;;;;;;;2.47;100.00;100704.00;5091037;28;20233;-80
2021/11/13 07:39:55;;;;;;;40.77;17.70;;;;;;;2.53;100.00;100696.31;5092711;28;20206;-80
2021/11/13 07:42:21;;;;;;;45.60;18.13;;;;;;;2.59;100.00;100708.41;5096327;28;20228;-80
2021/11/13 07:44:48;;;;;;;43.20;17.70;;;;;;;2.67;100.00;100716.16;5099990;28;20209;-80
2021/11/13 07:47:17;;;;;;;48.87;18.20;;;;;;;2.72;100.00;100715.34;5099900;28;20216;-80
2021/11/13 07:49:43;;;;;;;55.40;20.00;;;;;;;2.75;100.00;100712.81;5095617;28;20255;-80
2021/11/13 07:52:10;;;;;;;47.87;19.20;;;;;;;2.80;100.00;100711.13;5095035;28;20226;-80
2021/11/13 07:54:36;;;;;;;49.83;19.97;;;;;;;2.86;100.00;100717.19;5096919;28;20320;-80
2021/11/13 07:57:04;;;;;;;56.60;20.53;;;;;;;2.91;100.00;100712.91;5094709;28;20205;-80
2021/11/13 07:59:30;;;;;;;52.17;19.23;;;;;;;2.97;100.00;100715.50;5087641;28;20206;-80
2021/11/13 08:01:57;;;;;;;55.67;20.60;;;;;;;3.01;100.00;100712.97;5079122;28;20218;-80
2021/11/13 08:04:24;;;;;;;52.43;19.10;;;;;;;3.06;100.00;100713.03;5083563;28;20205;-81
2021/11/13 08:06:51;;;;;;;43.17;18.23;;;;;;;3.10;100.00;100714.75;5090210;28;20190;-80
2021/11/13 08:09:17;;;;;;;49.00;18.93;;;;;;;3.16;100.00;100716.50;5080320;28;20590;-80
2021/11/13 08:11:43;;;;;;;47.23;19.30;;;;;;;3.20;100.00;100716.53;5083863;28;20325;-80
2021/11/13 08:14:10;;;;;;;47.30;19.63;;;;;;;3.25;100.00;100724.28;5082294;28;20222;-81
2021/11/13 08:16:36;;;;;;;47.37;18.30;;;;;;;3.31;100.00;100718.31;5099801;28;20194;-80
2021/11/13 08:19:03;;;;;;;49.77;19.43;;;;;;;3.36;100.00;100724.31;5085117;28;20229;-81
2021/11/13 08:21:31;;;;;;;45.53;19.03;;;;;;;3.41;100.00;100718.38;5089741;28;20324;-80
2021/11/13 08:23:59;;;;;;;53.13;20.57;;;;;;;3.46;100.00;100722.66;5089409;28;20205;-80
2021/11/13 08:26:25;;;;;;;56.30;22.37;;;;;;;3.50;100.00;100714.97;5094303;28;20555;-81
2021/11/13 08:28:52;;;;;;;53.90;22.63;;;;;;;3.54;100.00;100719.28;5086914;28;20210;-81
2021/11/13 08:31:18;;;;;;;45.93;19.70;;;;;;;3.59;100.00;100717.56;5083984;28;20223;-80
2021/11/13 08:33:45;;;;;;;57.83;21.57;;;;;;;3.64;100.00;100719.31;5088641;28;20232;-80
2021/11/13 08:36:11;;;;;;;46.83;18.90;;;;;;;3.67;100.00;100712.44;5091707;28;20212;-81
2021/11/13 08:38:39;;;;;;;43.80;19.07;;;;;;;3.71;100.00;100718.47;5093416;28;20206;-80
2021/11/13 08:41:06;;;;;;;40.23;19.53;;;;;;;3.72;100.00;100718.47;5099850;28;20287;-80
2021/11/13 08:43:33;;;;;;;43.30;18.20;;;;;;;3.78;100.00;100717.63;5096968;28;20505;-80
2021/11/13 08:45:59;;;;;;;41.63;17.20;;;;;;;3.81;100.00;100720.22;5094633;28;20452;-80
2021/11/13 08:48:26;;;;;;;41.37;18.57;;;;;;;3.84;100.00;100712.50;5091993;28;20285;-80
2021/11/13 08:50:52;;;;;;;46.43;20.63;;;;;;;3.90;100.00;100714.22;5098177;28;20210;-80
2021/11/13 08:53:19;;;;;;;37.77;17.70;;;;;;;3.94;100.00;100727.16;5095713;28;20202;-80
2021/11/13 08:55:48;;;;;;;40.93;18.07;;;;;;;3.98;100.00;100723.72;5083205;28;20214;-80
2021/11/13 08:58:14;;;;;;;31.33;15.57;;;;;;;4.05;100.00;100726.31;5085387;28;20243;-80
2021/11/13 09:00:44;;;;;;;35.63;17.57;;;;;;;4.07;100.00;100722.03;5081753;28;20214;-80
2021/11/13 09:03:14;;;;;;;35.73;16.93;;;;;;;4.11;100.00;100722.00;5083276;28;20213;-80
2021/11/13 09:05:41;;;;;;;33.23;17.07;;;;;;;4.18;100.00;100717.72;5073839;28;20198;-80
2021/11/13 09:08:09;;;;;;;32.03;16.47;;;;;;;4.21;100.00;100719.47;5081262;28;20209;-80
2021/11/13 09:10:38;;;;;;;30.13;15.43;;;;;;;4.27;100.00;100720.31;5078283;28;20326;-80
2021/11/13 09:13:10;;;;;;;34.00;15.73;;;;;;;4.31;100.00;100723.75;5082964;28;20194;-80
2021/11/13 09:15:36;;;;;;;29.87;14.63;;;;;;;4.39;100.00;100728.94;5075560;28;20229;-80
2021/11/13 09:18:04;;;;;;;30.53;15.97;;;;;;;4.45;100.00;100734.97;5082012;28;20193;-80
2021/11/13 09:20:31;;;;;;;34.03;17.43;;;;;;;4.51;100.00;100734.97;5077316;28;20210;-80
2021/11/13 09:22:58;;;;;;;28.90;15.53;;;;;;;4.55;100.00;100738.41;5083514;28;20233;-80
2021/11/13 09:25:25;;;;;;;32.50;15.93;;;;;;;4.61;100.00;100742.72;5077792;28;20227;-80
2021/11/13 09:27:52;;;;;;;26.87;14.60;;;;;;;4.66;100.00;100741.88;5076222;28;20236;-80
2021/11/13 09:30:22;;;;;;;26.40;13.50;;;;;;;4.72;100.00;100739.28;5076699;28;20201;-80
2021/11/13 09:32:49;;;;;;;27.67;15.60;;;;;;;4.80;100.00;100735.84;5080665;28;20219;-80
2021/11/13 09:35:16;;;;;;;27.33;14.20;;;;;;;4.86;100.00;100738.44;5077927;28;20214;-80
2021/11/13 09:37:46;;;;;;;30.60;17.33;;;;;;;4.91;100.00;100737.56;5078645;28;20193;-80
2021/11/13 09:40:16;;;;;;;32.90;16.20;;;;;;;5.00;100.00;100741.00;5078429;28;20232;-80
2021/11/13 09:42:44;;;;;;;24.13;14.33;;;;;;;5.04;100.00;100735.81;5076687;28;20233;-81
2021/11/13 09:45:11;;;;;;;25.30;13.43;;;;;;;5.10;100.00;100727.16;5076020;28;20587;-82
2021/11/13 09:47:40;;;;;;;23.77;12.83;;;;;;;5.18;100.00;100733.19;5077352;28;20614;-80
2021/11/13 09:50:08;;;;;;;23.53;12.90;;;;;;;5.24;100.00;100733.19;5079889;28;20228;-80
2021/11/13 09:52:35;;;;;;;18.07;11.10;;;;;;;5.35;100.00;100733.16;5077397;28;20738;-81
2021/11/13 09:55:02;;;;;;;22.80;12.70;;;;;;;5.45;100.00;100721.94;5076196;28;20216;-80
2021/11/13 09:57:28;;;;;;;23.67;12.37;;;;;;;5.59;100.00;100726.16;5079667;28;20205;-80
2021/11/13 09:59:55;;;;;;;21.87;12.63;;;;;;;5.67;100.00;100722.69;5082037;28;20201;-80
2021/11/13 10:02:22;;;;;;;21.20;12.20;;;;;;;5.79;100.00;100720.94;5082621;28;20339;-80
2021/11/13 10:04:50;;;;;;;22.70;12.87;;;;;;;5.86;100.00;100720.03;5084403;28;20579;-80
2021/11/13 10:07:16;;;;;;;19.63;11.63;;;;;;;6.00;100.00;100717.41;5083990;28;20627;-81
2021/11/13 10:09:43;;;;;;;18.90;11.50;;;;;;;6.10;100.00;100720.78;5085552;28;20520;-81
2021/11/13 10:12:10;;;;;;;18.97;11.80;;;;;;;6.16;100.00;100736.28;5081116;28;20576;-80
2021/11/13 10:14:39;;;;;;;23.60;16.43;;;;;;;6.26;100.00;100730.16;5081670;28;20206;-81
2021/11/13 10:17:19;;;;;;;19.43;11.20;;;;;;;6.35;100.00;100744.78;5078393;28;20213;-80
2021/11/13 10:19:46;;;;;;;18.73;11.53;;;;;;;6.36;100.00;100733.56;5082438;28;20224;-81
2021/11/13 10:22:14;;;;;;;18.37;11.13;;;;;;;6.38;100.00;100745.59;5077097;28;20234;-80
2021/11/13 10:24:45;;;;;;;15.20;10.17;;;;;;;6.44;100.00;100732.63;5084661;28;20201;-81
2021/11/13 10:27:11;;;;;;;17.97;10.97;;;;;;;6.47;100.00;100736.06;5079055;28;20210;-82
2021/11/13 10:29:38;;;;;;;17.67;11.33;;;;;;;6.50;100.00;100729.13;5082990;28;20572;-81
2021/11/13 10:32:08;;;;;;;18.13;11.40;;;;;;;6.48;100.00;100733.47;5086107;28;20218;-81
2021/11/13 10:34:38;;;;;;;14.93;9.90;;;;;;;6.48;100.00;100727.44;5081790;28;20202;-81
2021/11/13 10:37:07;;;;;;;17.47;10.70;;;;;;;6.46;100.00;100724.00;5085892;28;20198;-81
2021/11/13 10:39:38;;;;;;;18.50;10.37;;;;;;;6.43;100.00;100717.09;5080836;28;20734;-83
2021/11/13 10:42:08;;;;;;;15.77;10.03;;;;;;;6.42;100.00;100723.13;5081439;28;20251;-80
2021/11/13 10:44:37;;;;;;;16.00;10.53;;;;;;;6.44;100.00;100721.41;5084099;28;20263;-81
2021/11/13 10:47:10;;;;;;;19.70;10.43;;;;;;;6.53;100.00;100730.84;5085877;28;20193;-80
2021/11/13 10:49:37;;;;;;;17.50;10.93;;;;;;;6.57;100.00;100722.19;5073968;28;20213;-80
2021/11/13 10:52:06;;;;;;;16.77;10.63;;;;;;;6.61;100.00;100726.44;5078743;28;20815;-80
2021/11/13 10:54:32;;;;;;;17.17;10.00;;;;;;;6.61;100.00;100729.91;5077873;28;20205;-81
2021/11/13 10:57:04;;;;;;;15.33;9.87;;;;;;;6.61;100.00;100735.09;5082495;28;20204;-81
2021/11/13 10:59:33;;;;;;;17.83;10.87;;;;;;;6.63;100.00;100729.88;5076208;28;20210;-81
2021/11/13 11:02:01;;;;;;;15.63;9.77;;;;;;;6.67;100.00;100730.75;5083668;28;20221;-80
2021/11/13 11:04:31;;;;;;;16.30;10.10;;;;;;;6.69;100.00;100732.44;5079092;28;20206;-81
2021/11/13 11:07:04;;;;;;;17.97;11.37;;;;;;;6.71;100.00;100737.59;5082809;28;20198;-80
2021/11/13 11:09:32;;;;;;;16.03;10.73;;;;;;;6.70;100.00;100735.88;5078862;28;20859;-79